Time;durP1;ratioP1;P1;durP2;ratioP2;P2;SDS_P1;SDS_P2;PMS_P1;PMS_P2;Temp;Humidity;BMP_temperature;BMP_pressure;BME280_temperature;BME280_humidity;BME280_pressure;Samples;Min_cycle;Max_cycle;Signal;HPM_P1;HPM_P2
2021/10/19 00:02:26;;;;;;;;;;;14.50;99.90;;;;;;5093091;28;20157;-75
2021/10/19 00:04:54;;;;;;;;;;;14.50;99.90;;;;;;5097530;28;20436;-75
2021/10/19 00:07:20;;;;;;;;;;;14.50;99.90;;;;;;5102984;28;19969;-75
2021/10/19 00:09:47;;;;;;;;;;;14.60;99.90;;;;;;5094194;28;19957;-76
2021/10/19 00:12:14;;;;;;;;;;;14.60;99.90;;;;;;5099286;28;19996;-76
2021/10/19 00:14:40;;;;;;;;;;;14.60;99.90;;;;;;5093563;28;19951;-75
2021/10/19 00:17:07;;;;;;;;;;;14.60;99.90;;;;;;5093381;28;19947;-75
2021/10/19 00:19:34;;;;;;;;;;;14.60;99.90;;;;;;5090382;28;20386;-76
2021/10/19 00:22:02;;;;;;;;;;;14.60;99.90;;;;;;5091902;28;20338;-75
2021/10/19 00:24:28;;;;;;;;;;;14.60;99.90;;;;;;5088129;28;19959;-77
2021/10/19 00:26:55;;;;;;;;;;;14.60;99.90;;;;;;5090560;28;19965;-76
2021/10/19 00:29:22;;;;;;;;;;;14.70;99.90;;;;;;5090992;28;19953;-76
2021/10/19 00:31:50;;;;;;;;;;;14.70;99.90;;;;;;5088804;28;19952;-76
2021/10/19 00:34:16;;;;;;;;;;;14.70;99.90;;;;;;5085505;28;19964;-76
2021/10/19 00:36:43;;;;;;;;;;;14.70;99.90;;;;;;5089292;28;19950;-76
2021/10/19 00:39:11;;;;;;;;;;;14.80;99.90;;;;;;5092647;28;19943;-76
2021/10/19 00:41:38;;;;;;;;;;;14.70;99.90;;;;;;5094188;28;20417;-77
2021/10/19 00:44:04;;;;;;;;;;;14.70;99.90;;;;;;5090852;28;19949;-76
2021/10/19 00:46:31;;;;;;;;;;;14.70;99.90;;;;;;5100762;28;19985;-76
2021/10/19 00:48:58;;;;;;;;;;;14.70;99.90;;;;;;5086727;28;19955;-76
2021/10/19 00:51:24;;;;;;;;;;;14.70;99.90;;;;;;5087807;28;19955;-76
2021/10/19 00:53:51;;;;;;;;;;;14.70;99.90;;;;;;5088812;28;19940;-75
2021/10/19 00:56:19;;;;;;;;;;;14.70;99.90;;;;;;5092227;28;19950;-75
2021/10/19 00:58:46;;;;;;;;;;;14.70;99.90;;;;;;5087083;28;20394;-75
2021/10/19 01:01:13;;;;;;;;;;;14.70;99.90;;;;;;5091095;28;20286;-75
2021/10/19 01:03:40;;;;;;;;;;;14.60;99.90;;;;;;5087006;28;19955;-74
2021/10/19 01:06:08;;;;;;;;;;;14.60;99.90;;;;;;5095533;28;20290;-75
2021/10/19 01:08:36;;;;;;;;;;;14.50;99.90;;;;;;5092022;28;19936;-76
2021/10/19 01:11:03;;;;;;;;;;;14.50;99.90;;;;;;5080506;28;19924;-76
2021/10/19 01:13:32;;;;;;;;;;;14.50;99.90;;;;;;5088367;28;19948;-76
2021/10/19 01:16:05;;;;;;;;;;;14.50;99.90;;;;;;5085286;28;20320;-76
2021/10/19 01:18:32;;;;;;;;;;;14.50;99.90;;;;;;5091790;28;20047;-76
2021/10/19 01:21:00;;;;;;;;;;;14.40;99.90;;;;;;5092202;28;19947;-76
2021/10/19 01:23:26;;;;;;;;;;;14.40;99.90;;;;;;5085043;28;22301;-75
2021/10/19 01:25:53;;;;;;;;;;;14.40;99.90;;;;;;5092936;28;19974;-75
2021/10/19 01:28:20;;;;;;;;;;;14.40;99.90;;;;;;5091512;28;20322;-74
2021/10/19 01:30:48;;;;;;;;;;;14.40;99.90;;;;;;5081638;28;20409;-75
2021/10/19 01:33:15;;;;;;;;;;;14.40;99.90;;;;;;5091324;28;19951;-75
2021/10/19 01:35:42;;;;;;;;;;;14.40;99.90;;;;;;5084127;28;20284;-75
2021/10/19 01:38:13;;;;;;;;;;;14.40;99.90;;;;;;5089162;28;19954;-75
2021/10/19 01:40:40;;;;;;;;;;;14.40;99.90;;;;;;5086356;28;20203;-75
2021/10/19 01:43:08;;;;;;;;;;;14.40;99.90;;;;;;5094969;28;19944;-75
2021/10/19 01:45:35;;;;;;;;;;;14.40;99.90;;;;;;5090692;28;20009;-75
2021/10/19 01:48:02;;;;;;;;;;;14.40;99.90;;;;;;5089839;28;20479;-75
2021/10/19 01:50:28;;;;;;;;;;;14.40;99.90;;;;;;5092015;28;19976;-75
2021/10/19 01:52:55;;;;;;;;;;;14.40;99.90;;;;;;5082527;28;19942;-75
2021/10/19 01:55:23;;;;;;;;;;;14.50;99.90;;;;;;5090032;28;19956;-75
2021/10/19 01:57:50;;;;;;;;;;;14.40;99.90;;;;;;5090946;28;19956;-76
2021/10/19 02:00:16;;;;;;;;;;;14.50;99.90;;;;;;5092152;28;19955;-75
2021/10/19 02:02:43;;;;;;;;;;;14.50;99.90;;;;;;5087160;28;19969;-76
2021/10/19 02:05:11;;;;;;;;;;;14.50;99.90;;;;;;5087733;28;20335;-76
2021/10/19 02:07:37;;;;;;;;;;;14.50;99.90;;;;;;5090696;28;19967;-76
2021/10/19 02:10:05;;;;;;;;;;;14.50;99.90;;;;;;5096096;28;20294;-76
2021/10/19 02:12:33;;;;;;;;;;;14.50;99.90;;;;;;5081391;28;19965;-76
2021/10/19 02:15:00;;;;;;;;;;;14.50;99.90;;;;;;5086652;28;20468;-76
2021/10/19 02:17:26;;;;;;;;;;;14.50;99.90;;;;;;5096301;28;20336;-76
2021/10/19 02:19:53;;;;;;;;;;;14.50;99.90;;;;;;5087574;28;19949;-76
2021/10/19 02:22:19;;;;;;;;;;;14.60;99.90;;;;;;5085289;28;19951;-76
2021/10/19 02:24:46;;;;;;;;;;;14.60;99.90;;;;;;5086990;28;19948;-76
2021/10/19 02:27:13;;;;;;;;;;;14.60;99.90;;;;;;5087697;28;19963;-76
2021/10/19 02:29:41;;;;;;;;;;;14.60;99.90;;;;;;5085217;28;19955;-77
2021/10/19 02:32:07;;;;;;;;;;;14.60;99.90;;;;;;5087242;28;19950;-75
2021/10/19 02:34:34;;;;;;;;;;;14.60;99.90;;;;;;5087507;28;20315;-75
2021/10/19 02:37:01;;;;;;;;;;;14.60;99.90;;;;;;5088038;28;19950;-75
2021/10/19 02:39:27;;;;;;;;;;;14.70;99.90;;;;;;5089966;28;19947;-76
2021/10/19 02:41:54;;;;;;;;;;;14.70;99.90;;;;;;5082190;28;19958;-76
2021/10/19 02:44:20;;;;;;;;;;;14.60;99.90;;;;;;5087356;28;19949;-76
2021/10/19 02:46:48;;;;;;;;;;;14.70;99.90;;;;;;5080297;28;19968;-76
2021/10/19 02:49:15;;;;;;;;;;;14.70;99.90;;;;;;5088116;28;19945;-75
2021/10/19 02:51:42;;;;;;;;;;;14.70;99.90;;;;;;5083286;28;19958;-75
2021/10/19 02:54:10;;;;;;;;;;;14.70;99.90;;;;;;5088084;28;19952;-75
2021/10/19 02:56:37;;;;;;;;;;;14.70;99.90;;;;;;5086263;28;20039;-76
2021/10/19 02:59:04;;;;;;;;;;;14.70;99.90;;;;;;5086386;28;19954;-76
2021/10/19 03:01:30;;;;;;;;;;;14.70;99.90;;;;;;5090416;28;19952;-76
2021/10/19 03:03:59;;;;;;;;;;;14.80;99.90;;;;;;5088998;28;19948;-75
2021/10/19 03:06:25;;;;;;;;;;;14.80;99.90;;;;;;5082251;28;20059;-75
2021/10/19 03:08:54;;;;;;;;;;;14.80;99.90;;;;;;5092657;28;20433;-75
2021/10/19 03:11:20;;;;;;;;;;;14.80;99.90;;;;;;5079960;28;20031;-75
2021/10/19 03:13:47;;;;;;;;;;;14.80;99.90;;;;;;5089525;28;20421;-75
2021/10/19 03:16:14;;;;;;;;;;;14.80;99.90;;;;;;5090552;28;19950;-75
2021/10/19 03:18:40;;;;;;;;;;;14.80;99.90;;;;;;5094254;28;19953;-75
2021/10/19 03:21:08;;;;;;;;;;;14.80;99.90;;;;;;5083788;28;19948;-76
2021/10/19 03:23:35;;;;;;;;;;;14.80;99.90;;;;;;5087322;28;20052;-76
2021/10/19 03:26:03;;;;;;;;;;;14.80;99.90;;;;;;5093378;28;19960;-76
2021/10/19 03:28:29;;;;;;;;;;;14.80;99.90;;;;;;5082783;28;20275;-76
2021/10/19 03:30:56;;;;;;;;;;;14.80;99.90;;;;;;5092624;28;20265;-76
2021/10/19 03:33:23;;;;;;;;;;;14.80;99.90;;;;;;5086200;28;19950;-76
2021/10/19 03:35:49;;;;;;;;;;;14.90;99.90;;;;;;5101572;28;19949;-76
2021/10/19 03:38:17;;;;;;;;;;;14.80;99.90;;;;;;5085817;28;19949;-75
2021/10/19 03:40:44;;;;;;;;;;;14.90;99.90;;;;;;5087479;28;19971;-75
2021/10/19 03:43:10;;;;;;;;;;;14.90;99.90;;;;;;5082310;28;19973;-74
2021/10/19 03:45:37;;;;;;;;;;;14.90;99.90;;;;;;5085253;28;20955;-75
2021/10/19 03:48:04;;;;;;;;;;;14.90;99.90;;;;;;5088845;28;20374;-74
2021/10/19 03:50:31;;;;;;;;;;;15.00;99.90;;;;;;5086179;28;19952;-75
2021/10/19 03:52:58;;;;;;;;;;;14.90;99.90;;;;;;5084273;28;20313;-75
2021/10/19 03:55:26;;;;;;;;;;;15.00;99.90;;;;;;5088828;28;19950;-75
2021/10/19 03:57:53;;;;;;;;;;;15.00;99.90;;;;;;5087995;28;19941;-75
2021/10/19 04:00:19;;;;;;;;;;;15.00;99.90;;;;;;5091338;28;20077;-76
2021/10/19 04:02:46;;;;;;;;;;;15.00;99.90;;;;;;5085728;28;19965;-75
2021/10/19 04:05:13;;;;;;;;;;;15.10;99.90;;;;;;5095326;28;19976;-75
2021/10/19 04:07:40;;;;;;;;;;;15.10;99.90;;;;;;5084262;28;19972;-76
2021/10/19 04:10:06;;;;;;;;;;;15.10;99.90;;;;;;5086711;28;19963;-76
2021/10/19 04:12:34;;;;;;;;;;;15.20;99.90;;;;;;5088330;28;20407;-75
2021/10/19 04:15:01;;;;;;;;;;;15.20;99.90;;;;;;5099703;28;19945;-75
2021/10/19 04:17:28;;;;;;;;;;;15.20;99.90;;;;;;5092567;28;20050;-74
2021/10/19 04:19:54;;;;;;;;;;;15.20;99.90;;;;;;5083621;28;20411;-75
2021/10/19 04:22:22;;;;;;;;;;;15.20;99.90;;;;;;5093941;28;19951;-75
2021/10/19 04:24:49;;;;;;;;;;;15.30;99.90;;;;;;5088319;28;19955;-75
2021/10/19 04:27:16;;;;;;;;;;;15.30;99.90;;;;;;5084492;28;19959;-72
2021/10/19 04:29:44;;;;;;;;;;;15.30;99.90;;;;;;5087900;28;19981;-70
2021/10/19 04:32:10;;;;;;;;;;;15.30;99.90;;;;;;5093734;28;20458;-73
2021/10/19 04:34:37;;;;;;;;;;;15.30;99.90;;;;;;5089436;28;19968;-71
2021/10/19 04:37:04;;;;;;;;;;;15.30;99.90;;;;;;5090056;28;19965;-71
2021/10/19 04:39:31;;;;;;;;;;;15.30;99.90;;;;;;5091121;28;19967;-71
2021/10/19 04:41:58;;;;;;;;;;;15.30;99.90;;;;;;5096980;28;20404;-71
2021/10/19 04:44:25;;;;;;;;;;;15.30;99.90;;;;;;5091243;28;19960;-71
2021/10/19 04:46:53;;;;;;;;;;;15.30;99.90;;;;;;5090054;28;20335;-70
2021/10/19 04:49:19;;;;;;;;;;;15.40;99.90;;;;;;5084438;28;19957;-70
2021/10/19 04:51:46;;;;;;;;;;;15.30;99.90;;;;;;5094202;28;20031;-71
2021/10/19 04:54:13;;;;;;;;;;;15.30;99.90;;;;;;5085637;28;20264;-71
2021/10/19 04:56:40;;;;;;;;;;;15.30;99.90;;;;;;5074466;28;19966;-71
2021/10/19 04:59:07;;;;;;;;;;;15.30;99.90;;;;;;5078767;28;20035;-72
2021/10/19 05:01:33;;;;;;;;;;;15.40;99.90;;;;;;5079209;28;19963;-72
2021/10/19 05:04:01;;;;;;;;;;;15.40;99.90;;;;;;5091973;28;19952;-72
2021/10/19 05:06:28;;;;;;;;;;;15.40;99.90;;;;;;5094724;28;19965;-72
2021/10/19 05:08:55;;;;;;;;;;;15.40;99.90;;;;;;5092181;28;19992;-71
2021/10/19 05:11:21;;;;;;;;;;;15.40;99.90;;;;;;5093555;28;19948;-72
2021/10/19 05:13:48;;;;;;;;;;;15.40;99.90;;;;;;5095563;28;19972;-71
2021/10/19 05:16:15;;;;;;;;;;;15.40;99.90;;;;;;5091266;28;20009;-71
2021/10/19 05:18:41;;;;;;;;;;;15.40;99.90;;;;;;5091320;28;19951;-71
2021/10/19 05:21:09;;;;;;;;;;;15.50;99.90;;;;;;5095042;28;20438;-71
2021/10/19 05:23:36;;;;;;;;;;;15.40;99.90;;;;;;5087362;28;19952;-72
2021/10/19 05:26:02;;;;;;;;;;;15.50;99.90;;;;;;5096065;28;19942;-72
2021/10/19 05:28:29;;;;;;;;;;;15.50;99.90;;;;;;5103073;28;19924;-72
2021/10/19 05:30:56;;;;;;;;;;;15.50;99.90;;;;;;5100175;28;23058;-72
2021/10/19 05:33:23;;;;;;;;;;;15.50;99.90;;;;;;5101099;28;20427;-72
2021/10/19 05:35:49;;;;;;;;;;;15.50;99.90;;;;;;5098161;28;19930;-72
2021/10/19 05:38:17;;;;;;;;;;;15.50;99.90;;;;;;5098036;28;20010;-71
2021/10/19 05:40:44;;;;;;;;;;;15.40;99.90;;;;;;5103433;28;19960;-72
2021/10/19 05:43:10;;;;;;;;;;;15.50;99.90;;;;;;5095176;28;20417;-72
2021/10/19 05:45:37;;;;;;;;;;;15.50;99.90;;;;;;5095563;28;19945;-73
2021/10/19 05:48:04;;;;;;;;;;;15.50;99.90;;;;;;5094382;28;19969;-73
2021/10/19 05:50:33;;;;;;;;;;;15.50;99.90;;;;;;5108342;28;19970;-73
2021/10/19 05:53:00;;;;;;;;;;;15.50;99.90;;;;;;5092649;28;19957;-73
2021/10/19 05:55:28;;;;;;;;;;;15.40;99.90;;;;;;5099695;28;19975;-73
2021/10/19 05:57:54;;;;;;;;;;;15.40;99.90;;;;;;5099736;28;19972;-73
2021/10/19 06:00:21;;;;;;;;;;;15.50;99.90;;;;;;5087975;28;20060;-73
2021/10/19 06:02:48;;;;;;;;;;;15.40;99.90;;;;;;5093187;28;20038;-74
2021/10/19 06:05:14;;;;;;;;;;;15.40;99.90;;;;;;5096931;28;20502;-75
2021/10/19 06:07:41;;;;;;;;;;;15.40;99.90;;;;;;5087315;28;19963;-74
2021/10/19 06:10:09;;;;;;;;;;;15.40;99.90;;;;;;5095074;28;19924;-74
2021/10/19 06:12:37;;;;;;;;;;;15.40;99.90;;;;;;5085388;28;19979;-75
2021/10/19 06:15:04;;;;;;;;;;;15.40;99.90;;;;;;5083058;28;19973;-72
2021/10/19 06:17:31;;;;;;;;;;;15.40;99.90;;;;;;5085921;28;19958;-71
2021/10/19 06:19:57;;;;;;;;;;;15.40;99.90;;;;;;5096737;28;19959;-71
2021/10/19 06:22:24;;;;;;;;;;;15.40;99.90;;;;;;5089889;28;19970;-73
2021/10/19 06:24:50;;;;;;;;;;;15.50;99.90;;;;;;5096008;28;20038;-74
2021/10/19 06:27:17;;;;;;;;;;;15.50;99.90;;;;;;5093555;28;19969;-75
2021/10/19 06:29:45;;;;;;;;;;;15.50;99.90;;;;;;5100307;28;20015;-71
2021/10/19 06:32:12;;;;;;;;;;;15.40;99.90;;;;;;5094007;28;19957;-73
2021/10/19 06:34:38;;;;;;;;;;;15.50;99.90;;;;;;5085397;28;19952;-71
2021/10/19 06:37:05;;;;;;;;;;;15.40;99.90;;;;;;5092863;28;19950;-72
2021/10/19 06:39:32;;;;;;;;;;;15.50;99.90;;;;;;5096999;28;19954;-72
2021/10/19 06:41:58;;;;;;;;;;;15.50;99.90;;;;;;5101612;28;19954;-72
2021/10/19 06:44:25;;;;;;;;;;;15.50;99.90;;;;;;5090810;28;19963;-72
2021/10/19 06:46:53;;;;;;;;;;;15.40;99.90;;;;;;5101860;28;20075;-71
2021/10/19 06:49:20;;;;;;;;;;;15.40;99.90;;;;;;5082386;28;19968;-71
2021/10/19 06:51:46;;;;;;;;;;;15.50;99.90;;;;;;5106069;28;20083;-72
2021/10/19 06:54:13;;;;;;;;;;;15.50;99.90;;;;;;5088280;28;19968;-71
2021/10/19 06:56:40;;;;;;;;;;;15.50;99.90;;;;;;5088053;28;20031;-71
2021/10/19 06:59:07;;;;;;;;;;;15.50;99.90;;;;;;5086768;28;19955;-71
2021/10/19 07:01:33;;;;;;;;;;;15.50;99.90;;;;;;5084456;28;19964;-71
2021/10/19 07:04:01;;;;;;;;;;;15.50;99.90;;;;;;5082798;28;19953;-71
2021/10/19 07:06:30;;;;;;;;;;;15.50;99.90;;;;;;5084691;28;19995;-70
2021/10/19 07:08:57;;;;;;;;;;;15.50;99.90;;;;;;5080631;28;20439;-73
2021/10/19 07:11:26;;;;;;;;;;;15.60;99.90;;;;;;5078010;28;19953;-78
2021/10/19 07:13:52;;;;;;;;;;;15.60;99.90;;;;;;5081922;28;19956;-73
2021/10/19 07:16:19;;;;;;;;;;;15.60;99.90;;;;;;5084328;28;19950;-71
2021/10/19 07:18:46;;;;;;;;;;;15.60;99.90;;;;;;5079467;28;19952;-73
2021/10/19 07:21:14;;;;;;;;;;;15.60;99.90;;;;;;5085576;28;19961;-73
2021/10/19 07:23:41;;;;;;;;;;;15.70;99.90;;;;;;5081711;28;20367;-73
2021/10/19 07:26:07;;;;;;;;;;;15.70;99.90;;;;;;5084208;28;20346;-73
2021/10/19 07:28:34;;;;;;;;;;;15.70;99.90;;;;;;5085474;28;19978;-74
2021/10/19 07:31:00;;;;;;;;;;;15.70;99.90;;;;;;5081771;28;19957;-74
2021/10/19 07:33:27;;;;;;;;;;;15.80;99.90;;;;;;5083421;28;19959;-73
2021/10/19 07:35:54;;;;;;;;;;;15.80;99.90;;;;;;5081408;28;19958;-73
2021/10/19 07:38:22;;;;;;;;;;;15.80;99.90;;;;;;5080827;28;19963;-72
2021/10/19 07:40:48;;;;;;;;;;;15.80;99.90;;;;;;5088238;28;19947;-73
2021/10/19 07:43:15;;;;;;;;;;;15.80;99.90;;;;;;5091256;28;19954;-73
2021/10/19 07:45:42;;;;;;;;;;;15.80;99.90;;;;;;5084941;28;19951;-74
2021/10/19 07:48:09;;;;;;;;;;;15.90;99.90;;;;;;5091013;28;19986;-73
2021/10/19 07:50:36;;;;;;;;;;;15.90;99.90;;;;;;5092814;28;19958;-73
2021/10/19 07:53:02;;;;;;;;;;;15.90;99.90;;;;;;5083752;28;19944;-73
2021/10/19 07:55:33;;;;;;;;;;;15.90;99.90;;;;;;5080408;28;19948;-75
2021/10/19 07:58:00;;;;;;;;;;;16.00;99.90;;;;;;5084327;28;20314;-73
2021/10/19 08:00:27;;;;;;;;;;;16.00;99.90;;;;;;5092167;28;20034;-74
2021/10/19 08:02:55;;;;;;;;;;;16.00;99.90;;;;;;5090421;28;19956;-75
2021/10/19 08:05:22;;;;;;;;;;;16.00;99.90;;;;;;5085058;28;19954;-73
2021/10/19 08:07:49;;;;;;;;;;;16.00;99.90;;;;;;5088751;28;20418;-72
2021/10/19 08:10:17;;;;;;;;;;;16.10;99.90;;;;;;5079062;28;19961;-75
2021/10/19 08:12:45;;;;;;;;;;;16.10;99.90;;;;;;5082488;28;19952;-73
2021/10/19 08:15:13;;;;;;;;;;;16.10;99.90;;;;;;5088606;28;20323;-73
2021/10/19 08:17:40;;;;;;;;;;;16.10;99.90;;;;;;5088806;28;19973;-72
2021/10/19 08:20:07;;;;;;;;;;;16.10;99.90;;;;;;5087803;28;20429;-73
2021/10/19 08:22:34;;;;;;;;;;;16.10;99.90;;;;;;5085177;28;19963;-73
2021/10/19 08:25:02;;;;;;;;;;;16.10;99.90;;;;;;5088299;28;19968;-73
2021/10/19 08:27:30;;;;;;;;;;;16.10;99.90;;;;;;5089944;28;19984;-73
2021/10/19 08:29:58;;;;;;;;;;;16.10;99.90;;;;;;5083142;28;19977;-73
2021/10/19 08:32:25;;;;;;;;;;;16.10;99.90;;;;;;5086062;28;19969;-73
2021/10/19 08:34:52;;;;;;;;;;;16.10;99.90;;;;;;5084285;28;19973;-75
2021/10/19 08:37:18;;;;;;;;;;;16.20;99.90;;;;;;5088355;28;20707;-73
2021/10/19 08:39:45;;;;;;;;;;;16.20;99.90;;;;;;5085298;28;20325;-68
2021/10/19 08:42:13;;;;;;;;;;;16.30;99.90;;;;;;5083282;28;19980;-71
2021/10/19 08:44:41;;;;;;;;;;;16.30;99.90;;;;;;5085386;28;19949;-71
2021/10/19 08:47:09;;;;;;;;;;;16.40;99.90;;;;;;5081626;28;20059;-69
2021/10/19 08:49:36;;;;;;;;;;;16.40;99.90;;;;;;5089685;28;20481;-70
2021/10/19 08:52:02;;;;;;;;;;;16.40;99.90;;;;;;5088357;28;19986;-69
2021/10/19 08:54:29;;;;;;;;;;;16.50;99.90;;;;;;5088129;28;19967;-71
2021/10/19 08:56:56;;;;;;;;;;;16.60;99.90;;;;;;5089639;28;21535;-69
2021/10/19 08:59:23;;;;;;;;;;;16.60;99.90;;;;;;5088365;28;19963;-70
2021/10/19 09:01:54;;;;;;;;;;;16.60;99.90;;;;;;5087291;28;20328;-70
2021/10/19 09:04:26;;;;;;;;;;;16.60;99.90;;;;;;5089276;28;19965;-70
2021/10/19 09:06:52;;;;;;;;;;;16.70;99.90;;;;;;5087748;28;19968;-71
2021/10/19 09:09:24;;;;;;;;;;;16.70;99.90;;;;;;5085133;28;19979;-72
2021/10/19 09:11:51;;;;;;;;;;;16.90;99.90;;;;;;5083508;28;19953;-73
2021/10/19 09:14:19;;;;;;;;;;;16.90;99.90;;;;;;5082576;28;19977;-73
2021/10/19 09:16:47;;;;;;;;;;;16.90;99.90;;;;;;5083571;28;19950;-73
2021/10/19 09:19:14;;;;;;;;;;;16.90;99.90;;;;;;5083185;28;19970;-73
2021/10/19 09:21:44;;;;;;;;;;;17.00;99.90;;;;;;5088005;28;20303;-73
2021/10/19 09:24:15;;;;;;;;;;;17.10;99.90;;;;;;5093377;28;19972;-72
2021/10/19 09:26:49;;;;;;;;;;;17.20;99.90;;;;;;5083715;28;20058;-73
2021/10/19 09:29:15;;;;;;;;;;;17.30;99.90;;;;;;5078648;28;20050;-73
2021/10/19 09:31:42;;;;;;;;;;;17.40;99.90;;;;;;5097314;28;20055;-73
2021/10/19 09:34:11;;;;;;;;;;;17.40;99.90;;;;;;5098419;28;19956;-73
2021/10/19 09:36:38;;;;;;;;;;;17.50;99.90;;;;;;5095479;28;20008;-73
2021/10/19 09:39:07;;;;;;;;;;;17.50;99.90;;;;;;5086258;28;20438;-73
2021/10/19 09:41:41;;;;;;;;;;;17.60;99.90;;;;;;5090754;28;20512;-73
2021/10/19 09:44:12;;;;;;;;;;;17.60;99.90;;;;;;5086779;28;20437;-73
2021/10/19 09:46:39;;;;;;;;;;;17.70;99.90;;;;;;5100144;28;19959;-74
2021/10/19 09:49:07;;;;;;;;;;;17.70;99.90;;;;;;5091600;28;19966;-73
2021/10/19 09:51:36;;;;;;;;;;;17.70;99.90;;;;;;5095372;28;19971;-73
2021/10/19 09:54:05;;;;;;;;;;;17.70;99.90;;;;;;5094383;28;19961;-74
2021/10/19 09:56:33;;;;;;;;;;;17.80;99.90;;;;;;5083664;28;19962;-75
2021/10/19 09:59:00;;;;;;;;;;;17.80;99.90;;;;;;5079648;28;19970;-75
2021/10/19 10:01:27;;;;;;;;;;;17.90;99.90;;;;;;5089080;28;19977;-74
2021/10/19 10:03:54;;;;;;;;;;;17.80;99.90;;;;;;5097678;28;20011;-73
2021/10/19 10:06:21;;;;;;;;;;;17.80;99.90;;;;;;5095813;28;19953;-75
2021/10/19 10:08:48;;;;;;;;;;;17.80;99.90;;;;;;5098575;28;20074;-73
2021/10/19 10:11:16;;;;;;;;;;;17.80;99.90;;;;;;5094221;28;19964;-73
2021/10/19 10:13:54;;;;;;;;;;;17.90;99.90;;;;;;5086397;28;20053;-75
2021/10/19 10:16:21;;;;;;;;;;;18.00;99.90;;;;;;5079789;28;19982;-74
2021/10/19 10:18:47;;;;;;;;;;;18.10;99.90;;;;;;5081977;28;19992;-75
2021/10/19 10:21:14;;;;;;;;;;;18.10;99.90;;;;;;5085699;28;19984;-74
2021/10/19 10:23:42;;;;;;;;;;;18.20;99.90;;;;;;5082472;28;19962;-74
2021/10/19 10:26:20;;;;;;;;;;;18.10;99.90;;;;;;5086315;28;19963;-76
2021/10/19 10:28:48;;;;;;;;;;;18.10;99.90;;;;;;5078876;28;20437;-75
2021/10/19 10:31:18;;;;;;;;;;;18.20;99.90;;;;;;5088558;28;19923;-74
2021/10/19 10:33:47;;;;;;;;;;;18.10;99.90;;;;;;5080438;28;19963;-74
2021/10/19 10:36:15;;;;;;;;;;;18.10;99.90;;;;;;5084861;28;19967;-71
2021/10/19 10:38:52;;;;;;;;;;;18.10;99.90;;;;;;5085722;28;20391;-71
2021/10/19 10:41:19;;;;;;;;;;;18.10;99.90;;;;;;5082886;28;19978;-70
2021/10/19 10:43:56;;;;;;;;;;;18.10;99.90;;;;;;5091708;28;19958;-73
2021/10/19 10:46:23;;;;;;;;;;;18.20;99.90;;;;;;5084985;28;20418;-73
2021/10/19 10:48:50;;;;;;;;;;;18.20;99.90;;;;;;5081657;28;20047;-74
2021/10/19 10:51:26;;;;;;;;;;;18.30;99.90;;;;;;5082974;28;20037;-74
2021/10/19 10:53:52;;;;;;;;;;;18.40;99.90;;;;;;5081466;28;20407;-74
2021/10/19 10:56:19;;;;;;;;;;;18.40;99.90;;;;;;5083046;28;19992;-74
2021/10/19 10:58:46;;;;;;;;;;;18.40;99.90;;;;;;5079256;28;19958;-74
2021/10/19 11:01:15;;;;;;;;;;;18.50;99.90;;;;;;5085279;28;20295;-74
2021/10/19 11:03:41;;;;;;;;;;;18.50;99.90;;;;;;5087715;28;19963;-76
2021/10/19 11:06:12;;;;;;;;;;;18.60;99.90;;;;;;5076508;28;20013;-73
2021/10/19 11:08:39;;;;;;;;;;;18.60;99.90;;;;;;5080705;28;19990;-74
2021/10/19 11:11:07;;;;;;;;;;;18.50;99.90;;;;;;5089031;28;20023;-73
2021/10/19 11:13:44;;;;;;;;;;;18.50;99.90;;;;;;5087076;28;19998;-72
2021/10/19 11:16:11;;;;;;;;;;;18.50;99.90;;;;;;5081941;28;20322;-73
2021/10/19 11:18:40;;;;;;;;;;;18.50;99.90;;;;;;5089859;28;20430;-74
2021/10/19 11:21:06;;;;;;;;;;;18.50;99.90;;;;;;5088813;28;19968;-74
2021/10/19 11:23:38;;;;;;;;;;;18.60;99.90;;;;;;5094499;28;20446;-72
2021/10/19 11:26:06;;;;;;;;;;;18.60;99.90;;;;;;5086017;28;19953;-74
2021/10/19 11:28:33;;;;;;;;;;;18.70;99.90;;;;;;5091910;28;20079;-73
2021/10/19 11:31:00;;;;;;;;;;;18.80;99.90;;;;;;5090244;28;19959;-74
2021/10/19 11:33:27;;;;;;;;;;;18.80;99.90;;;;;;5090742;28;20576;-73
2021/10/19 11:35:55;;;;;;;;;;;18.90;99.90;;;;;;5096362;28;20055;-72
2021/10/19 11:38:23;;;;;;;;;;;18.90;99.90;;;;;;5101463;28;19956;-75
2021/10/19 11:40:50;;;;;;;;;;;19.00;99.90;;;;;;5095112;28;19948;-74
2021/10/19 11:43:19;;;;;;;;;;;19.00;99.90;;;;;;5099244;28;19966;-73
2021/10/19 11:45:47;;;;;;;;;;;18.90;99.90;;;;;;5093584;28;20040;-73
2021/10/19 11:48:14;;;;;;;;;;;18.90;99.90;;;;;;5095848;28;20012;-74
2021/10/19 11:50:40;;;;;;;;;;;18.90;99.90;;;;;;5093917;28;19952;-76
2021/10/19 11:53:10;;;;;;;;;;;18.90;99.90;;;;;;5105077;28;19947;-76
2021/10/19 11:55:37;;;;;;;;;;;18.80;99.90;;;;;;5092953;28;20425;-74
2021/10/19 11:58:05;;;;;;;;;;;18.80;99.90;;;;;;5093533;28;19958;-76
2021/10/19 12:00:33;;;;;;;;;;;18.80;99.90;;;;;;5092416;28;20002;-75
2021/10/19 12:03:00;;;;;;;;;;;18.80;99.90;;;;;;5097249;28;19961;-75
2021/10/19 12:05:28;;;;;;;;;;;18.80;99.90;;;;;;5085572;28;19950;-76
2021/10/19 12:07:56;;;;;;;;;;;18.80;99.90;;;;;;5093754;28;20047;-75
2021/10/19 12:10:25;;;;;;;;;;;18.80;99.90;;;;;;5101305;28;19975;-74
2021/10/19 12:12:52;;;;;;;;;;;18.80;99.90;;;;;;5093763;28;19971;-73
2021/10/19 12:15:20;;;;;;;;;;;18.80;99.90;;;;;;5087494;28;19995;-73
2021/10/19 12:17:51;;;;;;;;;;;18.80;99.90;;;;;;5089955;28;19978;-73
2021/10/19 12:20:18;;;;;;;;;;;18.80;99.90;;;;;;5088564;28;19962;-75
2021/10/19 12:22:45;;;;;;;;;;;18.80;99.90;;;;;;5089110;28;20089;-73
2021/10/19 12:25:12;;;;;;;;;;;18.80;99.90;;;;;;5095277;28;19959;-74
2021/10/19 12:27:40;;;;;;;;;;;18.70;99.90;;;;;;5103309;28;19979;-73
2021/10/19 12:30:11;;;;;;;;;;;18.70;99.90;;;;;;5093103;28;20312;-76
2021/10/19 12:32:39;;;;;;;;;;;18.60;99.90;;;;;;5097167;28;19969;-74
2021/10/19 12:35:06;;;;;;;;;;;18.70;99.90;;;;;;5097375;28;20499;-72
2021/10/19 12:37:33;;;;;;;;;;;18.70;99.90;;;;;;5091225;28;20094;-72
2021/10/19 12:40:01;;;;;;;;;;;18.70;99.90;;;;;;5098778;28;20375;-72
2021/10/19 12:42:29;;;;;;;;;;;18.70;99.90;;;;;;5097041;28;20337;-77
2021/10/19 12:44:57;;;;;;;;;;;18.70;99.90;;;;;;5090989;28;19957;-73
2021/10/19 12:47:24;;;;;;;;;;;18.70;99.90;;;;;;5096609;28;20343;-75
2021/10/19 12:49:53;;;;;;;;;;;18.80;99.90;;;;;;5093132;28;19993;-74
2021/10/19 12:52:19;;;;;;;;;;;18.80;99.90;;;;;;5103156;28;20337;-74
2021/10/19 12:54:46;;;;;;;;;;;18.80;99.90;;;;;;5102376;28;20061;-74
2021/10/19 12:57:14;;;;;;;;;;;18.70;99.90;;;;;;5086799;28;20036;-75
2021/10/19 12:59:41;;;;;;;;;;;18.70;99.90;;;;;;5085152;28;20007;-75
2021/10/19 13:02:09;;;;;;;;;;;18.60;99.90;;;;;;5095131;28;20365;-75
2021/10/19 13:04:36;;;;;;;;;;;18.50;99.90;;;;;;5092177;28;19957;-74
2021/10/19 13:07:03;;;;;;;;;;;18.40;99.90;;;;;;5088711;28;19956;-75
2021/10/19 13:09:30;;;;;;;;;;;18.30;99.90;;;;;;5086825;28;20068;-75
2021/10/19 13:11:57;;;;;;;;;;;18.20;99.90;;;;;;5091261;28;19953;-76
2021/10/19 13:14:23;;;;;;;;;;;18.00;99.90;;;;;;5080226;28;20061;-76
2021/10/19 13:16:51;;;;;;;;;;;18.00;99.90;;;;;;5098660;28;19956;-73
2021/10/19 13:19:19;;;;;;;;;;;17.90;99.90;;;;;;5095516;28;19961;-74
2021/10/19 13:21:46;;;;;;;;;;;17.90;99.90;;;;;;5097785;28;19954;-75
2021/10/19 13:24:13;;;;;;;;;;;17.90;99.90;;;;;;5092891;28;19967;-72
2021/10/19 13:26:40;;;;;;;;;;;17.80;99.90;;;;;;5104168;28;19958;-73
2021/10/19 13:29:07;;;;;;;;;;;17.80;99.90;;;;;;5100392;28;19995;-74
2021/10/19 13:31:34;;;;;;;;;;;17.90;99.90;;;;;;5099822;28;20429;-74
2021/10/19 13:34:02;;;;;;;;;;;18.00;99.90;;;;;;5097707;28;19978;-74
2021/10/19 13:36:30;;;;;;;;;;;18.20;99.90;;;;;;5088467;28;20031;-73
2021/10/19 13:38:57;;;;;;;;;;;18.40;99.90;;;;;;5105910;28;19971;-74
2021/10/19 13:41:23;;;;;;;;;;;18.50;99.90;;;;;;5102740;28;19961;-73
2021/10/19 13:43:50;;;;;;;;;;;18.60;99.90;;;;;;5101205;28;20048;-74
2021/10/19 13:46:17;;;;;;;;;;;18.80;99.90;;;;;;5084190;28;19964;-75
2021/10/19 13:48:43;;;;;;;;;;;18.90;99.90;;;;;;5091965;28;19964;-74
2021/10/19 13:51:10;;;;;;;;;;;18.80;99.90;;;;;;5085222;28;19965;-74
2021/10/19 13:53:40;;;;;;;;;;;18.90;99.90;;;;;;5082857;28;19974;-73
2021/10/19 13:56:06;;;;;;;;;;;18.80;99.90;;;;;;5089216;28;20020;-74
2021/10/19 13:58:33;;;;;;;;;;;18.80;99.90;;;;;;5087814;28;20020;-73
2021/10/19 14:01:00;;;;;;;;;;;19.00;99.90;;;;;;5084182;28;20381;-74
2021/10/19 14:03:26;;;;;;;;;;;19.10;99.90;;;;;;5093092;28;19966;-75
2021/10/19 14:05:53;;;;;;;;;;;19.10;99.90;;;;;;5093323;28;20380;-73
2021/10/19 14:08:20;;;;;;;;;;;19.00;99.90;;;;;;5085574;28;20406;-74
2021/10/19 14:10:48;;;;;;;;;;;19.00;99.90;;;;;;5084108;28;20385;-72
2021/10/19 14:13:15;;;;;;;;;;;19.10;99.90;;;;;;5088331;28;19950;-74
2021/10/19 14:15:41;;;;;;;;;;;19.30;99.90;;;;;;5091993;28;19969;-72
2021/10/19 14:18:08;;;;;;;;;;;19.30;99.90;;;;;;5088589;28;19951;-73